sensor_id;sensor_type;location;lat;lon;timestamp;pressure;altitude;pressure_sealevel;temperature
23208;BMP180;11773;52.570;13.052;2023-07-22T00:01:07;100814.00;;;21.00
23208;BMP180;11773;52.570;13.052;2023-07-22T00:03:36;100807.00;;;21.00
23208;BMP180;11773;52.570;13.052;2023-07-22T00:06:10;100811.00;;;21.00
23208;BMP180;11773;52.570;13.052;2023-07-22T00:08:40;100813.00;;;20.90
23208;BMP180;11773;52.570;13.052;2023-07-22T00:11:10;100825.00;;;21.00
23208;BMP180;11773;52.570;13.052;2023-07-22T00:13:39;100836.00;;;21.00
23208;BMP180;11773;52.570;13.052;2023-07-22T00:16:09;100829.00;;;21.00
23208;BMP180;11773;52.570;13.052;2023-07-22T00:18:39;100831.00;;;21.00
23208;BMP180;11773;52.570;13.052;2023-07-22T00:21:08;100839.00;;;21.00
23208;BMP180;11773;52.570;13.052;2023-07-22T00:23:39;100830.00;;;21.00
23208;BMP180;11773;52.570;13.052;2023-07-22T00:26:09;100835.00;;;21.00
23208;BMP180;11773;52.570;13.052;2023-07-22T00:28:38;100825.00;;;21.00
23208;BMP180;11773;52.570;13.052;2023-07-22T00:31:08;100824.00;;;21.10
23208;BMP180;11773;52.570;13.052;2023-07-22T00:33:38;100819.00;;;21.10
23208;BMP180;11773;52.570;13.052;2023-07-22T00:36:08;100827.00;;;21.10
23208;BMP180;11773;52.570;13.052;2023-07-22T00:38:37;100826.00;;;21.10
23208;BMP180;11773;52.570;13.052;2023-07-22T00:41:08;100819.00;;;21.10
23208;BMP180;11773;52.570;13.052;2023-07-22T00:43:38;100816.00;;;21.20
23208;BMP180;11773;52.570;13.052;2023-07-22T00:46:08;100832.00;;;21.20
23208;BMP180;11773;52.570;13.052;2023-07-22T00:48:39;100829.00;;;21.20
23208;BMP180;11773;52.570;13.052;2023-07-22T00:51:09;100833.00;;;21.20
23208;BMP180;11773;52.570;13.052;2023-07-22T00:53:39;100823.00;;;21.20
23208;BMP180;11773;52.570;13.052;2023-07-22T00:56:08;100813.00;;;21.20
23208;BMP180;11773;52.570;13.052;2023-07-22T00:58:38;100823.00;;;21.20
23208;BMP180;11773;52.570;13.052;2023-07-22T01:01:08;100823.00;;;21.20
23208;BMP180;11773;52.570;13.052;2023-07-22T01:03:38;100843.00;;;21.30
23208;BMP180;11773;52.570;13.052;2023-07-22T01:06:08;100833.00;;;21.30
23208;BMP180;11773;52.570;13.052;2023-07-22T01:08:40;100825.00;;;21.30
23208;BMP180;11773;52.570;13.052;2023-07-22T01:11:09;100837.00;;;21.30
23208;BMP180;11773;52.570;13.052;2023-07-22T01:13:39;100837.00;;;21.30
23208;BMP180;11773;52.570;13.052;2023-07-22T01:16:09;100837.00;;;21.30
23208;BMP180;11773;52.570;13.052;2023-07-22T01:18:39;100845.00;;;21.30
23208;BMP180;11773;52.570;13.052;2023-07-22T01:21:10;100847.00;;;21.30
23208;BMP180;11773;52.570;13.052;2023-07-22T01:23:41;100828.00;;;21.30
23208;BMP180;11773;52.570;13.052;2023-07-22T01:26:19;100818.00;;;21.40
23208;BMP180;11773;52.570;13.052;2023-07-22T01:28:49;100831.00;;;21.40
23208;BMP180;11773;52.570;13.052;2023-07-22T01:31:19;100828.00;;;21.40
23208;BMP180;11773;52.570;13.052;2023-07-22T01:33:48;100839.00;;;21.40
23208;BMP180;11773;52.570;13.052;2023-07-22T01:36:18;100847.00;;;21.40
23208;BMP180;11773;52.570;13.052;2023-07-22T01:38:47;100843.00;;;21.40
23208;BMP180;11773;52.570;13.052;2023-07-22T01:41:17;100846.00;;;21.50
23208;BMP180;11773;52.570;13.052;2023-07-22T01:43:47;100844.00;;;21.50
23208;BMP180;11773;52.570;13.052;2023-07-22T01:46:17;100849.00;;;21.50
23208;BMP180;11773;52.570;13.052;2023-07-22T01:48:47;100860.00;;;21.50
23208;BMP180;11773;52.570;13.052;2023-07-22T01:51:16;100854.00;;;21.50
23208;BMP180;11773;52.570;13.052;2023-07-22T01:53:46;100866.00;;;21.50
23208;BMP180;11773;52.570;13.052;2023-07-22T01:56:16;100852.00;;;21.50
23208;BMP180;11773;52.570;13.052;2023-07-22T01:58:45;100853.00;;;21.50
23208;BMP180;11773;52.570;13.052;2023-07-22T02:01:15;100866.00;;;21.50
23208;BMP180;11773;52.570;13.052;2023-07-22T02:03:45;100862.00;;;21.50
23208;BMP180;11773;52.570;13.052;2023-07-22T02:06:15;100877.00;;;21.50
23208;BMP180;11773;52.570;13.052;2023-07-22T02:08:45;100860.00;;;21.50
23208;BMP180;11773;52.570;13.052;2023-07-22T02:11:14;100869.00;;;21.50
23208;BMP180;11773;52.570;13.052;2023-07-22T02:13:44;100890.00;;;21.50
23208;BMP180;11773;52.570;13.052;2023-07-22T02:16:14;100870.00;;;21.50
23208;BMP180;11773;52.570;13.052;2023-07-22T02:18:45;100885.00;;;21.40
23208;BMP180;11773;52.570;13.052;2023-07-22T02:21:16;100872.00;;;21.40
23208;BMP180;11773;52.570;13.052;2023-07-22T02:23:45;100879.00;;;21.40
23208;BMP180;11773;52.570;13.052;2023-07-22T02:26:15;100892.00;;;21.40
23208;BMP180;11773;52.570;13.052;2023-07-22T02:28:45;100890.00;;;21.40
23208;BMP180;11773;52.570;13.052;2023-07-22T02:31:15;100888.00;;;21.40
23208;BMP180;11773;52.570;13.052;2023-07-22T02:33:44;100907.00;;;21.40
23208;BMP180;11773;52.570;13.052;2023-07-22T02:36:15;100888.00;;;21.40
23208;BMP180;11773;52.570;13.052;2023-07-22T02:38:44;100900.00;;;21.40
23208;BMP180;11773;52.570;13.052;2023-07-22T02:41:14;100899.00;;;21.40
23208;BMP180;11773;52.570;13.052;2023-07-22T02:43:44;100899.00;;;21.40
23208;BMP180;11773;52.570;13.052;2023-07-22T02:46:13;100895.00;;;21.40
23208;BMP180;11773;52.570;13.052;2023-07-22T02:48:43;100908.00;;;21.40
23208;BMP180;11773;52.570;13.052;2023-07-22T02:51:12;100906.00;;;21.30
23208;BMP180;11773;52.570;13.052;2023-07-22T02:53:42;100921.00;;;21.40
23208;BMP180;11773;52.570;13.052;2023-07-22T02:56:14;100906.00;;;21.30
23208;BMP180;11773;52.570;13.052;2023-07-22T02:58:43;100907.00;;;21.30
23208;BMP180;11773;52.570;13.052;2023-07-22T03:01:13;100917.00;;;21.30
23208;BMP180;11773;52.570;13.052;2023-07-22T03:03:43;100905.00;;;21.30
23208;BMP180;11773;52.570;13.052;2023-07-22T03:06:13;100908.00;;;21.30
23208;BMP180;11773;52.570;13.052;2023-07-22T03:08:43;100906.00;;;21.30
23208;BMP180;11773;52.570;13.052;2023-07-22T03:11:12;100908.00;;;21.30
23208;BMP180;11773;52.570;13.052;2023-07-22T03:13:42;100916.00;;;21.30
23208;BMP180;11773;52.570;13.052;2023-07-22T03:16:11;100911.00;;;21.30
23208;BMP180;11773;52.570;13.052;2023-07-22T03:18:43;100917.00;;;21.30
23208;BMP180;11773;52.570;13.052;2023-07-22T03:21:13;100928.00;;;21.30
23208;BMP180;11773;52.570;13.052;2023-07-22T03:23:42;100933.00;;;21.30
23208;BMP180;11773;52.570;13.052;2023-07-22T03:26:12;100918.00;;;21.30
23208;BMP180;11773;52.570;13.052;2023-07-22T03:28:41;100921.00;;;21.30
23208;BMP180;11773;52.570;13.052;2023-07-22T03:31:11;100924.00;;;21.30
23208;BMP180;11773;52.570;13.052;2023-07-22T03:33:41;100926.00;;;21.20
23208;BMP180;11773;52.570;13.052;2023-07-22T03:36:12;100929.00;;;21.20
23208;BMP180;11773;52.570;13.052;2023-07-22T03:38:42;100939.00;;;21.20
23208;BMP180;11773;52.570;13.052;2023-07-22T03:41:11;100935.00;;;21.20
23208;BMP180;11773;52.570;13.052;2023-07-22T03:43:41;100933.00;;;21.20
23208;BMP180;11773;52.570;13.052;2023-07-22T03:46:11;100944.00;;;21.10
23208;BMP180;11773;52.570;13.052;2023-07-22T03:48:41;100939.00;;;21.10
23208;BMP180;11773;52.570;13.052;2023-07-22T03:51:11;100958.00;;;21.10
23208;BMP180;11773;52.570;13.052;2023-07-22T03:53:42;100950.00;;;21.00
23208;BMP180;11773;52.570;13.052;2023-07-22T03:56:11;100941.00;;;21.00
23208;BMP180;11773;52.570;13.052;2023-07-22T03:58:41;100950.00;;;21.00
23208;BMP180;11773;52.570;13.052;2023-07-22T04:01:14;100954.00;;;21.00
23208;BMP180;11773;52.570;13.052;2023-07-22T04:03:43;100947.00;;;21.00
23208;BMP180;11773;52.570;13.052;2023-07-22T04:06:13;100953.00;;;20.90
23208;BMP180;11773;52.570;13.052;2023-07-22T04:08:43;100947.00;;;20.90
23208;BMP180;11773;52.570;13.052;2023-07-22T04:11:13;100960.00;;;20.90
23208;BMP180;11773;52.570;13.052;2023-07-22T04:13:43;100950.00;;;20.90
23208;BMP180;11773;52.570;13.052;2023-07-22T04:16:12;100948.00;;;20.90
23208;BMP180;11773;52.570;13.052;2023-07-22T04:18:42;100943.00;;;20.80
23208;BMP180;11773;52.570;13.052;2023-07-22T04:21:12;100945.00;;;20.80
23208;BMP180;11773;52.570;13.052;2023-07-22T04:23:41;100943.00;;;20.80
23208;BMP180;11773;52.570;13.052;2023-07-22T04:26:11;100947.00;;;20.80
23208;BMP180;11773;52.570;13.052;2023-07-22T04:28:41;100943.00;;;20.80
23208;BMP180;11773;52.570;13.052;2023-07-22T04:31:10;100943.00;;;20.80
23208;BMP180;11773;52.570;13.052;2023-07-22T04:33:40;100946.00;;;20.80
23208;BMP180;11773;52.570;13.052;2023-07-22T04:36:10;100946.00;;;20.80
23208;BMP180;11773;52.570;13.052;2023-07-22T04:38:39;100945.00;;;20.80
23208;BMP180;11773;52.570;13.052;2023-07-22T04:41:09;100962.00;;;20.70
23208;BMP180;11773;52.570;13.052;2023-07-22T04:43:38;100964.00;;;20.70
23208;BMP180;11773;52.570;13.052;2023-07-22T04:46:08;100968.00;;;20.80
23208;BMP180;11773;52.570;13.052;2023-07-22T04:48:38;100960.00;;;20.80
23208;BMP180;11773;52.570;13.052;2023-07-22T04:51:08;100962.00;;;20.80
23208;BMP180;11773;52.570;13.052;2023-07-22T04:53:38;100958.00;;;20.80
23208;BMP180;11773;52.570;13.052;2023-07-22T04:56:07;100968.00;;;20.80
23208;BMP180;11773;52.570;13.052;2023-07-22T04:58:37;100975.00;;;20.80
23208;BMP180;11773;52.570;13.052;2023-07-22T05:01:07;100974.00;;;20.80
23208;BMP180;11773;52.570;13.052;2023-07-22T05:03:37;100973.00;;;20.80
23208;BMP180;11773;52.570;13.052;2023-07-22T05:06:07;100977.00;;;20.80
23208;BMP180;11773;52.570;13.052;2023-07-22T05:08:36;100985.00;;;20.80
23208;BMP180;11773;52.570;13.052;2023-07-22T05:11:07;101000.00;;;20.90
23208;BMP180;11773;52.570;13.052;2023-07-22T05:13:37;100991.00;;;20.90
23208;BMP180;11773;52.570;13.052;2023-07-22T05:16:07;100985.00;;;20.90
23208;BMP180;11773;52.570;13.052;2023-07-22T05:18:37;100995.00;;;21.00
23208;BMP180;11773;52.570;13.052;2023-07-22T05:21:07;100983.00;;;21.00
23208;BMP180;11773;52.570;13.052;2023-07-22T05:23:37;100995.00;;;21.10
23208;BMP180;11773;52.570;13.052;2023-07-22T05:26:06;100987.00;;;21.20
23208;BMP180;11773;52.570;13.052;2023-07-22T05:28:36;100999.00;;;21.30
23208;BMP180;11773;52.570;13.052;2023-07-22T05:31:05;100998.00;;;21.40
23208;BMP180;11773;52.570;13.052;2023-07-22T05:33:35;101004.00;;;21.50
23208;BMP180;11773;52.570;13.052;2023-07-22T05:36:06;100990.00;;;21.70
23208;BMP180;11773;52.570;13.052;2023-07-22T05:38:35;100991.00;;;21.80
23208;BMP180;11773;52.570;13.052;2023-07-22T05:41:05;101000.00;;;22.00
23208;BMP180;11773;52.570;13.052;2023-07-22T05:43:35;100999.00;;;22.20
23208;BMP180;11773;52.570;13.052;2023-07-22T05:46:04;101011.00;;;22.40
23208;BMP180;11773;52.570;13.052;2023-07-22T05:48:34;101007.00;;;22.60
23208;BMP180;11773;52.570;13.052;2023-07-22T05:51:04;101010.00;;;22.80
23208;BMP180;11773;52.570;13.052;2023-07-22T05:53:34;101026.00;;;23.00
23208;BMP180;11773;52.570;13.052;2023-07-22T05:56:03;101025.00;;;23.20
23208;BMP180;11773;52.570;13.052;2023-07-22T05:58:33;101029.00;;;23.50
23208;BMP180;11773;52.570;13.052;2023-07-22T06:01:03;101025.00;;;23.70
23208;BMP180;11773;52.570;13.052;2023-07-22T06:03:33;101032.00;;;23.90
23208;BMP180;11773;52.570;13.052;2023-07-22T06:06:02;101021.00;;;24.00
23208;BMP180;11773;52.570;13.052;2023-07-22T06:08:32;101032.00;;;24.20
23208;BMP180;11773;52.570;13.052;2023-07-22T06:11:02;101029.00;;;24.40
23208;BMP180;11773;52.570;13.052;2023-07-22T06:13:31;101032.00;;;24.50
23208;BMP180;11773;52.570;13.052;2023-07-22T06:16:01;101035.00;;;24.70
23208;BMP180;11773;52.570;13.052;2023-07-22T06:18:31;101042.00;;;24.80
23208;BMP180;11773;52.570;13.052;2023-07-22T06:21:00;101023.00;;;24.90
23208;BMP180;11773;52.570;13.052;2023-07-22T06:23:30;101039.00;;;25.10
23208;BMP180;11773;52.570;13.052;2023-07-22T06:26:00;101044.00;;;25.20
23208;BMP180;11773;52.570;13.052;2023-07-22T06:28:30;101031.00;;;25.30
23208;BMP180;11773;52.570;13.052;2023-07-22T06:31:00;101052.00;;;25.40
23208;BMP180;11773;52.570;13.052;2023-07-22T06:33:29;101047.00;;;25.50
23208;BMP180;11773;52.570;13.052;2023-07-22T06:36:00;101061.00;;;25.60
23208;BMP180;11773;52.570;13.052;2023-07-22T06:38:29;101061.00;;;25.60
23208;BMP180;11773;52.570;13.052;2023-07-22T06:40:59;101062.00;;;25.70
23208;BMP180;11773;52.570;13.052;2023-07-22T06:43:29;101049.00;;;25.70
23208;BMP180;11773;52.570;13.052;2023-07-22T06:45:58;101055.00;;;25.70
23208;BMP180;11773;52.570;13.052;2023-07-22T06:48:28;101055.00;;;25.80
23208;BMP180;11773;52.570;13.052;2023-07-22T06:50:58;101057.00;;;25.80
23208;BMP180;11773;52.570;13.052;2023-07-22T06:53:27;101043.00;;;25.80
23208;BMP180;11773;52.570;13.052;2023-07-22T06:55:57;101041.00;;;25.90
23208;BMP180;11773;52.570;13.052;2023-07-22T06:58:26;101049.00;;;25.90
23208;BMP180;11773;52.570;13.052;2023-07-22T07:00:56;101059.00;;;26.00
23208;BMP180;11773;52.570;13.052;2023-07-22T07:03:26;101050.00;;;26.00
23208;BMP180;11773;52.570;13.052;2023-07-22T07:05:56;101064.00;;;26.10
23208;BMP180;11773;52.570;13.052;2023-07-22T07:08:26;101063.00;;;26.10
23208;BMP180;11773;52.570;13.052;2023-07-22T07:10:58;101067.00;;;26.10
23208;BMP180;11773;52.570;13.052;2023-07-22T07:13:27;101064.00;;;26.10
23208;BMP180;11773;52.570;13.052;2023-07-22T07:15:57;101066.00;;;26.00
23208;BMP180;11773;52.570;13.052;2023-07-22T07:18:28;101060.00;;;26.00
23208;BMP180;11773;52.570;13.052;2023-07-22T07:20:57;101066.00;;;26.00
23208;BMP180;11773;52.570;13.052;2023-07-22T07:23:27;101069.00;;;26.00
23208;BMP180;11773;52.570;13.052;2023-07-22T07:25:58;101063.00;;;26.00
23208;BMP180;11773;52.570;13.052;2023-07-22T07:28:27;101060.00;;;26.00
23208;BMP180;11773;52.570;13.052;2023-07-22T07:30:57;101081.00;;;26.00
23208;BMP180;11773;52.570;13.052;2023-07-22T07:33:27;101075.00;;;26.00
23208;BMP180;11773;52.570;13.052;2023-07-22T07:35:57;101077.00;;;26.10
23208;BMP180;11773;52.570;13.052;2023-07-22T07:38:26;101071.00;;;26.00
23208;BMP180;11773;52.570;13.052;2023-07-22T07:41:01;101080.00;;;26.00
23208;BMP180;11773;52.570;13.052;2023-07-22T07:43:31;101089.00;;;26.00
23208;BMP180;11773;52.570;13.052;2023-07-22T07:46:18;101089.00;;;26.00
23208;BMP180;11773;52.570;13.052;2023-07-22T07:48:53;101081.00;;;25.90
23208;BMP180;11773;52.570;13.052;2023-07-22T07:51:24;101088.00;;;25.90
23208;BMP180;11773;52.570;13.052;2023-07-22T07:53:56;101085.00;;;25.80
23208;BMP180;11773;52.570;13.052;2023-07-22T07:56:27;101102.00;;;25.80
23208;BMP180;11773;52.570;13.052;2023-07-22T07:58:58;101100.00;;;25.80
23208;BMP180;11773;52.570;13.052;2023-07-22T08:01:27;101094.00;;;25.80
23208;BMP180;11773;52.570;13.052;2023-07-22T08:03:57;101102.00;;;25.80
23208;BMP180;11773;52.570;13.052;2023-07-22T08:06:27;101099.00;;;25.80
23208;BMP180;11773;52.570;13.052;2023-07-22T08:08:57;101089.00;;;25.80
23208;BMP180;11773;52.570;13.052;2023-07-22T08:11:28;101102.00;;;25.90
23208;BMP180;11773;52.570;13.052;2023-07-22T08:13:59;101103.00;;;25.90
23208;BMP180;11773;52.570;13.052;2023-07-22T08:16:28;101110.00;;;25.90
23208;BMP180;11773;52.570;13.052;2023-07-22T08:18:58;101105.00;;;25.90
23208;BMP180;11773;52.570;13.052;2023-07-22T08:21:28;101102.00;;;26.00
23208;BMP180;11773;52.570;13.052;2023-07-22T08:23:57;101096.00;;;26.00
23208;BMP180;11773;52.570;13.052;2023-07-22T08:26:27;101092.00;;;26.10
23208;BMP180;11773;52.570;13.052;2023-07-22T08:28:58;101103.00;;;26.20
23208;BMP180;11773;52.570;13.052;2023-07-22T08:31:28;101106.00;;;26.20
23208;BMP180;11773;52.570;13.052;2023-07-22T08:33:58;101120.00;;;26.30
23208;BMP180;11773;52.570;13.052;2023-07-22T08:36:28;101120.00;;;26.30
23208;BMP180;11773;52.570;13.052;2023-07-22T08:38:58;101116.00;;;26.30
23208;BMP180;11773;52.570;13.052;2023-07-22T08:41:30;101104.00;;;26.20
23208;BMP180;11773;52.570;13.052;2023-07-22T08:44:01;101115.00;;;26.20
23208;BMP180;11773;52.570;13.052;2023-07-22T08:46:33;101132.00;;;26.20
23208;BMP180;11773;52.570;13.052;2023-07-22T08:49:07;101110.00;;;26.20
23208;BMP180;11773;52.570;13.052;2023-07-22T08:51:38;101116.00;;;26.10
23208;BMP180;11773;52.570;13.052;2023-07-22T08:54:10;101133.00;;;26.10
23208;BMP180;11773;52.570;13.052;2023-07-22T08:56:40;101108.00;;;26.10
23208;BMP180;11773;52.570;13.052;2023-07-22T08:59:11;101126.00;;;26.20
23208;BMP180;11773;52.570;13.052;2023-07-22T09:01:43;101119.00;;;26.20
23208;BMP180;11773;52.570;13.052;2023-07-22T09:04:12;101130.00;;;26.20
23208;BMP180;11773;52.570;13.052;2023-07-22T09:06:43;101110.00;;;26.20
23208;BMP180;11773;52.570;13.052;2023-07-22T09:09:14;101125.00;;;26.30
23208;BMP180;11773;52.570;13.052;2023-07-22T09:11:46;101116.00;;;26.30
23208;BMP180;11773;52.570;13.052;2023-07-22T09:14:19;101122.00;;;26.30
23208;BMP180;11773;52.570;13.052;2023-07-22T09:16:50;101110.00;;;26.30
23208;BMP180;11773;52.570;13.052;2023-07-22T09:19:20;101111.00;;;26.30
23208;BMP180;11773;52.570;13.052;2023-07-22T09:21:49;101112.00;;;26.40
23208;BMP180;11773;52.570;13.052;2023-07-22T09:24:25;101124.00;;;26.40
23208;BMP180;11773;52.570;13.052;2023-07-22T09:26:58;101119.00;;;26.40
23208;BMP180;11773;52.570;13.052;2023-07-22T09:29:38;101129.00;;;26.40
23208;BMP180;11773;52.570;13.052;2023-07-22T09:32:08;101132.00;;;26.50
23208;BMP180;11773;52.570;13.052;2023-07-22T09:34:39;101129.00;;;26.50
23208;BMP180;11773;52.570;13.052;2023-07-22T09:37:10;101114.00;;;26.60
23208;BMP180;11773;52.570;13.052;2023-07-22T09:39:41;101120.00;;;26.60
23208;BMP180;11773;52.570;13.052;2023-07-22T09:42:23;101122.00;;;26.60
23208;BMP180;11773;52.570;13.052;2023-07-22T09:44:48;101131.00;;;26.60
23208;BMP180;11773;52.570;13.052;2023-07-22T09:47:19;101115.00;;;26.70
23208;BMP180;11773;52.570;13.052;2023-07-22T09:49:50;101130.00;;;26.70
23208;BMP180;11773;52.570;13.052;2023-07-22T09:52:20;101121.00;;;26.60
23208;BMP180;11773;52.570;13.052;2023-07-22T09:54:51;101132.00;;;26.60
23208;BMP180;11773;52.570;13.052;2023-07-22T09:57:22;101124.00;;;26.60
23208;BMP180;11773;52.570;13.052;2023-07-22T09:59:54;101122.00;;;26.60
23208;BMP180;11773;52.570;13.052;2023-07-22T10:02:24;101130.00;;;26.60
23208;BMP180;11773;52.570;13.052;2023-07-22T10:04:58;101123.00;;;26.60
23208;BMP180;11773;52.570;13.052;2023-07-22T10:07:30;101128.00;;;26.60
23208;BMP180;11773;52.570;13.052;2023-07-22T10:10:02;101126.00;;;26.50
23208;BMP180;11773;52.570;13.052;2023-07-22T10:12:32;101133.00;;;26.50
23208;BMP180;11773;52.570;13.052;2023-07-22T10:15:04;101142.00;;;26.60
23208;BMP180;11773;52.570;13.052;2023-07-22T10:17:35;101124.00;;;26.60
23208;BMP180;11773;52.570;13.052;2023-07-22T10:20:06;101131.00;;;26.60
23208;BMP180;11773;52.570;13.052;2023-07-22T10:22:37;101122.00;;;26.70
23208;BMP180;11773;52.570;13.052;2023-07-22T10:25:07;101118.00;;;26.70
23208;BMP180;11773;52.570;13.052;2023-07-22T10:27:37;101130.00;;;26.80
23208;BMP180;11773;52.570;13.052;2023-07-22T10:30:15;101125.00;;;26.90
23208;BMP180;11773;52.570;13.052;2023-07-22T10:32:53;101108.00;;;26.90
23208;BMP180;11773;52.570;13.052;2023-07-22T10:38:24;101126.00;;;27.00
23208;BMP180;11773;52.570;13.052;2023-07-22T10:40:55;101121.00;;;27.00
23208;BMP180;11773;52.570;13.052;2023-07-22T10:43:33;101116.00;;;27.10
23208;BMP180;11773;52.570;13.052;2023-07-22T10:46:13;101116.00;;;27.20
23208;BMP180;11773;52.570;13.052;2023-07-22T10:48:43;101121.00;;;27.20
23208;BMP180;11773;52.570;13.052;2023-07-22T10:51:15;101116.00;;;27.30
23208;BMP180;11773;52.570;13.052;2023-07-22T10:53:48;101129.00;;;27.30
23208;BMP180;11773;52.570;13.052;2023-07-22T10:56:23;101132.00;;;27.40
23208;BMP180;11773;52.570;13.052;2023-07-22T10:58:57;101117.00;;;27.40
23208;BMP180;11773;52.570;13.052;2023-07-22T11:01:31;101130.00;;;27.40
23208;BMP180;11773;52.570;13.052;2023-07-22T11:04:23;101124.00;;;27.40
23208;BMP180;11773;52.570;13.052;2023-07-22T11:07:06;101125.00;;;27.40
23208;BMP180;11773;52.570;13.052;2023-07-22T11:09:37;101122.00;;;27.40
23208;BMP180;11773;52.570;13.052;2023-07-22T11:12:17;101120.00;;;27.40
23208;BMP180;11773;52.570;13.052;2023-07-22T11:14:53;101122.00;;;27.40
23208;BMP180;11773;52.570;13.052;2023-07-22T11:17:32;101129.00;;;27.40
23208;BMP180;11773;52.570;13.052;2023-07-22T11:20:03;101119.00;;;27.40
23208;BMP180;11773;52.570;13.052;2023-07-22T11:22:33;101131.00;;;27.50
23208;BMP180;11773;52.570;13.052;2023-07-22T11:25:04;101121.00;;;27.50
23208;BMP180;11773;52.570;13.052;2023-07-22T11:27:34;101102.00;;;27.50
23208;BMP180;11773;52.570;13.052;2023-07-22T11:30:05;101125.00;;;27.60
23208;BMP180;11773;52.570;13.052;2023-07-22T11:32:35;101125.00;;;27.60
23208;BMP180;11773;52.570;13.052;2023-07-22T11:35:09;101115.00;;;27.60
23208;BMP180;11773;52.570;13.052;2023-07-22T11:37:39;101120.00;;;27.70
23208;BMP180;11773;52.570;13.052;2023-07-22T11:40:12;101110.00;;;27.70
23208;BMP180;11773;52.570;13.052;2023-07-22T11:42:43;101109.00;;;27.70
23208;BMP180;11773;52.570;13.052;2023-07-22T11:45:14;101120.00;;;27.80
23208;BMP180;11773;52.570;13.052;2023-07-22T11:47:43;101115.00;;;27.80
23208;BMP180;11773;52.570;13.052;2023-07-22T11:50:13;101112.00;;;27.80
23208;BMP180;11773;52.570;13.052;2023-07-22T11:52:48;101101.00;;;27.90
23208;BMP180;11773;52.570;13.052;2023-07-22T11:55:14;101096.00;;;27.90
23208;BMP180;11773;52.570;13.052;2023-07-22T11:57:54;101096.00;;;28.00
23208;BMP180;11773;52.570;13.052;2023-07-22T12:00:23;101102.00;;;28.00
23208;BMP180;11773;52.570;13.052;2023-07-22T12:02:53;101114.00;;;28.10
23208;BMP180;11773;52.570;13.052;2023-07-22T12:05:25;101104.00;;;28.20
23208;BMP180;11773;52.570;13.052;2023-07-22T12:07:54;101112.00;;;28.20
23208;BMP180;11773;52.570;13.052;2023-07-22T12:10:25;101114.00;;;28.20
23208;BMP180;11773;52.570;13.052;2023-07-22T12:12:55;101102.00;;;28.30
23208;BMP180;11773;52.570;13.052;2023-07-22T12:15:26;101113.00;;;28.30
23208;BMP180;11773;52.570;13.052;2023-07-22T12:18:00;101108.00;;;28.40
23208;BMP180;11773;52.570;13.052;2023-07-22T12:20:34;101105.00;;;28.40
23208;BMP180;11773;52.570;13.052;2023-07-22T12:23:07;101112.00;;;28.40
23208;BMP180;11773;52.570;13.052;2023-07-22T12:25:37;101111.00;;;28.30
23208;BMP180;11773;52.570;13.052;2023-07-22T12:28:07;101111.00;;;28.30
23208;BMP180;11773;52.570;13.052;2023-07-22T12:30:38;101108.00;;;28.30
23208;BMP180;11773;52.570;13.052;2023-07-22T12:33:08;101105.00;;;28.30
23208;BMP180;11773;52.570;13.052;2023-07-22T12:35:38;101116.00;;;28.30
23208;BMP180;11773;52.570;13.052;2023-07-22T12:38:08;101108.00;;;28.30
23208;BMP180;11773;52.570;13.052;2023-07-22T12:40:38;101096.00;;;28.30
23208;BMP180;11773;52.570;13.052;2023-07-22T12:43:08;101109.00;;;28.30
23208;BMP180;11773;52.570;13.052;2023-07-22T12:45:37;101106.00;;;28.30
23208;BMP180;11773;52.570;13.052;2023-07-22T12:48:07;101100.00;;;28.40
23208;BMP180;11773;52.570;13.052;2023-07-22T12:50:37;101106.00;;;28.40
23208;BMP180;11773;52.570;13.052;2023-07-22T12:53:07;101080.00;;;28.40
23208;BMP180;11773;52.570;13.052;2023-07-22T12:55:37;101089.00;;;28.40
23208;BMP180;11773;52.570;13.052;2023-07-22T12:58:06;101090.00;;;28.50
23208;BMP180;11773;52.570;13.052;2023-07-22T13:00:36;101095.00;;;28.50
23208;BMP180;11773;52.570;13.052;2023-07-22T13:03:05;101092.00;;;28.50
23208;BMP180;11773;52.570;13.052;2023-07-22T13:05:35;101090.00;;;28.50
23208;BMP180;11773;52.570;13.052;2023-07-22T13:08:05;101087.00;;;28.60
23208;BMP180;11773;52.570;13.052;2023-07-22T13:10:34;101091.00;;;28.60
23208;BMP180;11773;52.570;13.052;2023-07-22T13:13:06;101095.00;;;28.60
23208;BMP180;11773;52.570;13.052;2023-07-22T13:15:36;101094.00;;;28.60
23208;BMP180;11773;52.570;13.052;2023-07-22T13:18:05;101082.00;;;28.60
23208;BMP180;11773;52.570;13.052;2023-07-22T13:20:36;101094.00;;;28.60
23208;BMP180;11773;52.570;13.052;2023-07-22T13:23:05;101088.00;;;28.60
23208;BMP180;11773;52.570;13.052;2023-07-22T13:25:35;101080.00;;;28.60
23208;BMP180;11773;52.570;13.052;2023-07-22T13:28:05;101089.00;;;28.60
23208;BMP180;11773;52.570;13.052;2023-07-22T13:30:35;101093.00;;;28.60
23208;BMP180;11773;52.570;13.052;2023-07-22T13:33:04;101083.00;;;28.60
23208;BMP180;11773;52.570;13.052;2023-07-22T13:35:34;101083.00;;;28.60
23208;BMP180;11773;52.570;13.052;2023-07-22T13:38:03;101076.00;;;28.60
23208;BMP180;11773;52.570;13.052;2023-07-22T13:40:33;101083.00;;;28.50
23208;BMP180;11773;52.570;13.052;2023-07-22T13:43:03;101080.00;;;28.50
23208;BMP180;11773;52.570;13.052;2023-07-22T13:45:33;101085.00;;;28.50
23208;BMP180;11773;52.570;13.052;2023-07-22T13:48:03;101082.00;;;28.50
23208;BMP180;11773;52.570;13.052;2023-07-22T13:50:32;101086.00;;;28.40
23208;BMP180;11773;52.570;13.052;2023-07-22T13:53:04;101092.00;;;28.40
23208;BMP180;11773;52.570;13.052;2023-07-22T13:55:33;101081.00;;;28.40
23208;BMP180;11773;52.570;13.052;2023-07-22T13:58:03;101082.00;;;28.40
23208;BMP180;11773;52.570;13.052;2023-07-22T14:00:34;101082.00;;;28.40
23208;BMP180;11773;52.570;13.052;2023-07-22T14:03:03;101073.00;;;28.30
23208;BMP180;11773;52.570;13.052;2023-07-22T14:05:33;101068.00;;;28.30